createdAt,value
2023-05-23T00:00:14.479Z,100.00
2023-05-23T00:02:43.786Z,100.00
2023-05-23T00:05:11.420Z,100.00
2023-05-23T00:07:38.979Z,100.00
2023-05-23T00:10:07.182Z,100.00
2023-05-23T00:12:34.882Z,100.00
2023-05-23T00:15:03.001Z,100.00
2023-05-23T00:17:30.691Z,100.00
2023-05-23T00:19:58.305Z,100.00
2023-05-23T00:22:26.075Z,100.00
2023-05-23T00:24:53.629Z,100.00
2023-05-23T00:27:21.188Z,100.00
2023-05-23T00:29:48.670Z,100.00
2023-05-23T00:32:16.336Z,100.00
2023-05-23T00:34:45.608Z,100.00
2023-05-23T00:37:13.556Z,100.00
2023-05-23T00:39:41.229Z,100.00
2023-05-23T00:42:08.919Z,100.00
2023-05-23T00:44:36.455Z,100.00
2023-05-23T00:47:06.133Z,100.00
2023-05-23T00:49:34.128Z,100.00
2023-05-23T00:52:01.606Z,100.00
2023-05-23T00:54:31.480Z,100.00
2023-05-23T00:56:59.259Z,100.00
2023-05-23T00:59:27.556Z,100.00
2023-05-23T01:01:56.644Z,100.00
2023-05-23T01:04:28.522Z,100.00
2023-05-23T01:06:56.183Z,100.00
2023-05-23T01:09:28.346Z,100.00
2023-05-23T01:12:14.619Z,100.00
2023-05-23T01:14:43.778Z,100.00
2023-05-23T01:17:16.358Z,100.00
2023-05-23T01:19:53.270Z,100.00
2023-05-23T01:22:49.468Z,100.00
2023-05-23T01:25:36.365Z,100.00
2023-05-23T01:28:05.994Z,100.00
2023-05-23T01:30:35.484Z,100.00
2023-05-23T01:33:03.030Z,100.00
2023-05-23T01:35:31.275Z,100.00
2023-05-23T01:37:58.904Z,100.00
2023-05-23T01:40:26.598Z,100.00
2023-05-23T01:42:55.886Z,100.00
2023-05-23T01:45:23.529Z,100.00
2023-05-23T01:47:51.329Z,100.00
2023-05-23T01:50:19.263Z,100.00
2023-05-23T01:52:48.039Z,100.00
2023-05-23T01:55:18.983Z,100.00
2023-05-23T01:57:49.850Z,100.00
2023-05-23T02:00:17.990Z,100.00
2023-05-23T02:02:47.703Z,100.00
2023-05-23T02:05:16.825Z,100.00
2023-05-23T02:07:44.256Z,100.00
2023-05-23T02:10:11.814Z,100.00
2023-05-23T02:12:39.257Z,100.00
2023-05-23T02:15:07.888Z,100.00
2023-05-23T02:17:35.451Z,100.00
2023-05-23T02:20:03.070Z,100.00
2023-05-23T02:22:32.056Z,100.00
2023-05-23T02:24:59.529Z,100.00
2023-05-23T02:27:27.479Z,100.00
2023-05-23T02:29:55.247Z,100.00
2023-05-23T02:32:22.726Z,100.00
2023-05-23T02:34:50.592Z,100.00
2023-05-23T02:37:18.092Z,100.00
2023-05-23T02:39:45.710Z,100.00
2023-05-23T02:42:14.571Z,100.00
2023-05-23T02:44:42.439Z,100.00
2023-05-23T02:47:10.100Z,100.00
2023-05-23T02:49:37.836Z,100.00
2023-05-23T02:52:07.022Z,100.00
2023-05-23T02:54:34.457Z,100.00
2023-05-23T02:57:01.963Z,100.00
2023-05-23T02:59:30.934Z,100.00
2023-05-23T03:01:58.768Z,100.00
2023-05-23T03:04:27.815Z,100.00
2023-05-23T03:06:55.394Z,100.00
2023-05-23T03:09:23.137Z,100.00
2023-05-23T03:11:51.513Z,100.00
2023-05-23T03:14:19.173Z,100.00
2023-05-23T03:16:46.788Z,100.00
2023-05-23T03:19:14.862Z,100.00
2023-05-23T03:21:42.575Z,100.00
2023-05-23T03:24:10.787Z,100.00
2023-05-23T03:26:38.500Z,100.00
2023-05-23T03:29:06.818Z,100.00
2023-05-23T03:31:34.575Z,100.00
2023-05-23T03:34:02.920Z,100.00
2023-05-23T03:36:33.454Z,100.00
2023-05-23T03:39:01.182Z,100.00
2023-05-23T03:41:28.665Z,100.00
2023-05-23T03:43:56.495Z,100.00
2023-05-23T03:46:24.133Z,100.00
2023-05-23T03:48:52.184Z,100.00
2023-05-23T03:51:19.822Z,100.00
2023-05-23T03:53:47.578Z,100.00
2023-05-23T03:56:15.140Z,100.00
2023-05-23T03:58:42.697Z,100.00
2023-05-23T04:01:13.743Z,100.00
2023-05-23T04:03:41.376Z,100.00
2023-05-23T04:06:09.061Z,100.00
2023-05-23T04:08:42.225Z,100.00
2023-05-23T04:11:09.934Z,100.00
2023-05-23T04:13:39.141Z,100.00
2023-05-23T04:16:07.276Z,100.00
2023-05-23T04:18:34.842Z,100.00
2023-05-23T04:21:02.655Z,100.00
2023-05-23T04:23:31.503Z,100.00
2023-05-23T04:25:59.414Z,100.00
2023-05-23T04:28:32.688Z,100.00
2023-05-23T04:31:03.061Z,100.00
2023-05-23T04:33:34.506Z,100.00
2023-05-23T04:36:03.794Z,100.00
2023-05-23T04:38:32.407Z,100.00
2023-05-23T04:41:01.344Z,100.00
2023-05-23T04:43:54.596Z,100.00
2023-05-23T04:46:34.968Z,100.00
2023-05-23T04:49:10.257Z,100.00
2023-05-23T04:51:38.574Z,100.00
2023-05-23T04:54:22.215Z,100.00
2023-05-23T04:56:49.964Z,100.00
2023-05-23T04:59:19.845Z,100.00
2023-05-23T05:01:47.356Z,100.00
2023-05-23T05:04:15.783Z,100.00
2023-05-23T05:06:43.548Z,100.00
2023-05-23T05:09:11.218Z,100.00
2023-05-23T05:11:39.078Z,100.00
2023-05-23T05:14:07.341Z,100.00
2023-05-23T05:16:36.577Z,100.00
2023-05-23T05:19:04.363Z,100.00
2023-05-23T05:21:32.683Z,100.00
2023-05-23T05:24:00.246Z,100.00
2023-05-23T05:26:28.138Z,100.00
2023-05-23T05:28:56.587Z,100.00
2023-05-23T05:31:24.080Z,100.00
2023-05-23T05:33:51.563Z,100.00
2023-05-23T05:39:51.315Z,100.00
2023-05-23T05:42:19.312Z,100.00
2023-05-23T05:44:48.199Z,100.00
2023-05-23T05:47:16.013Z,100.00
2023-05-23T05:49:43.697Z,100.00
2023-05-23T05:52:11.313Z,100.00
2023-05-23T05:54:38.985Z,100.00
2023-05-23T05:57:06.620Z,100.00
2023-05-23T05:59:34.281Z,100.00
2023-05-23T06:02:02.210Z,100.00
2023-05-23T06:04:30.055Z,100.00
2023-05-23T06:06:58.425Z,100.00
2023-05-23T06:09:26.080Z,100.00
2023-05-23T06:11:53.745Z,100.00
2023-05-23T06:14:21.511Z,100.00
2023-05-23T06:16:49.717Z,100.00
2023-05-23T06:19:17.883Z,100.00
2023-05-23T06:21:48.492Z,100.00
2023-05-23T06:24:16.623Z,100.00
2023-05-23T06:26:44.180Z,100.00
2023-05-23T06:29:11.739Z,100.00
2023-05-23T06:31:39.550Z,100.00
2023-05-23T06:34:07.229Z,100.00
2023-05-23T06:36:34.950Z,100.00
2023-05-23T06:39:02.792Z,100.00
2023-05-23T06:41:55.130Z,100.00
2023-05-23T06:44:22.635Z,100.00
2023-05-23T06:46:57.850Z,100.00
2023-05-23T06:49:25.812Z,100.00
2023-05-23T06:51:53.811Z,100.00
2023-05-23T06:54:21.589Z,100.00
2023-05-23T06:56:50.118Z,100.00
2023-05-23T06:59:19.630Z,100.00
2023-05-23T07:01:47.490Z,100.00
2023-05-23T07:04:15.526Z,99.98
2023-05-23T07:06:43.219Z,99.47
2023-05-23T07:09:12.115Z,98.91
2023-05-23T07:11:41.766Z,96.78
2023-05-23T07:14:09.991Z,95.61
2023-05-23T07:16:41.106Z,95.47
2023-05-23T07:19:09.236Z,96.16
2023-05-23T07:30:05.303Z,93.75
2023-05-23T07:32:33.478Z,92.24
2023-05-23T07:35:01.323Z,91.67
2023-05-23T07:37:29.121Z,93.35
2023-05-23T07:39:56.678Z,89.65
2023-05-23T07:42:24.414Z,87.30
2023-05-23T07:44:52.182Z,85.44
2023-05-23T07:50:55.286Z,86.00
2023-05-23T07:53:23.791Z,85.40
2023-05-23T08:00:52.472Z,80.55
2023-05-23T08:03:43.944Z,76.42
2023-05-23T08:06:19.823Z,76.11
2023-05-23T08:08:48.160Z,75.90
2023-05-23T08:11:15.880Z,69.22
2023-05-23T08:13:46.834Z,68.97
2023-05-23T08:16:38.182Z,70.89
2023-05-23T08:19:12.639Z,73.05
2023-05-23T08:21:40.614Z,73.72
2023-05-23T08:24:08.254Z,73.92
2023-05-23T08:26:38.137Z,72.27
2023-05-23T08:29:07.518Z,71.10
2023-05-23T08:31:37.374Z,66.20
2023-05-23T08:34:07.245Z,64.32
2023-05-23T08:36:36.683Z,59.05
2023-05-23T08:39:05.015Z,57.17
2023-05-23T08:41:38.083Z,55.93
2023-05-23T08:44:10.079Z,54.42
2023-05-23T08:46:46.374Z,53.57
2023-05-23T08:49:19.615Z,53.51
2023-05-23T08:51:47.245Z,53.82
2023-05-23T08:54:19.076Z,52.95
2023-05-23T08:56:46.532Z,49.53
2023-05-23T08:59:14.067Z,50.22
2023-05-23T09:01:43.529Z,52.49
2023-05-23T09:04:12.711Z,53.97
2023-05-23T09:06:55.763Z,53.60
2023-05-23T09:09:23.677Z,52.15
2023-05-23T09:11:52.028Z,50.58
2023-05-23T09:14:20.096Z,51.35
2023-05-23T09:16:49.716Z,52.74
2023-05-23T09:19:19.822Z,52.86
2023-05-23T09:21:53.942Z,52.98
2023-05-23T09:24:37.292Z,52.55
2023-05-23T09:27:07.707Z,51.53
2023-05-23T09:29:40.063Z,50.23
2023-05-23T09:32:14.515Z,50.71
2023-05-23T09:35:04.263Z,51.11
2023-05-23T09:37:46.216Z,51.35
2023-05-23T09:40:16.755Z,50.60
2023-05-23T09:42:55.460Z,49.55
2023-05-23T09:45:30.135Z,49.60
2023-05-23T09:47:58.077Z,48.76
2023-05-23T09:50:31.042Z,48.03
2023-05-23T09:52:58.593Z,46.88
2023-05-23T09:55:28.861Z,46.61
2023-05-23T09:57:59.070Z,46.55
2023-05-23T10:00:29.113Z,46.24
2023-05-23T10:03:17.645Z,46.66
2023-05-23T10:05:48.899Z,47.09
2023-05-23T10:08:28.237Z,46.29
2023-05-23T10:10:58.632Z,45.28
2023-05-23T10:13:27.294Z,44.27
2023-05-23T10:16:36.394Z,44.38
2023-05-23T10:19:07.960Z,44.38
2023-05-23T10:21:39.484Z,43.88
2023-05-23T10:24:07.599Z,45.05
2023-05-23T10:26:35.249Z,45.90
2023-05-23T10:29:02.744Z,45.60
2023-05-23T10:31:30.499Z,45.85
2023-05-23T10:34:36.716Z,46.63
2023-05-23T10:37:04.780Z,47.03
2023-05-23T10:39:54.453Z,46.77
2023-05-23T10:42:37.498Z,45.01
2023-05-23T10:45:15.491Z,44.44
2023-05-23T10:47:43.158Z,45.20
2023-05-23T10:50:15.317Z,45.41
2023-05-23T10:52:43.278Z,45.29
2023-05-23T10:55:19.927Z,44.47
2023-05-23T10:57:48.479Z,44.24
2023-05-23T11:00:17.585Z,43.81
2023-05-23T11:02:55.832Z,43.08
2023-05-23T11:05:24.905Z,42.95
2023-05-23T11:08:14.735Z,43.83
2023-05-23T11:11:02.654Z,43.64
2023-05-23T11:14:00.873Z,44.26
2023-05-23T11:16:29.409Z,43.25
2023-05-23T11:19:19.334Z,44.21
2023-05-23T11:22:02.186Z,44.44
2023-05-23T11:24:52.700Z,45.10
2023-05-23T11:27:26.717Z,45.41
2023-05-23T11:30:02.272Z,45.28
2023-05-23T11:32:31.453Z,45.17
2023-05-23T11:35:06.459Z,44.69
2023-05-23T11:37:34.142Z,44.66
2023-05-23T11:40:27.508Z,44.93
2023-05-23T11:42:55.866Z,44.70
2023-05-23T11:45:23.992Z,45.25
2023-05-23T11:47:51.746Z,43.23
2023-05-23T11:50:20.915Z,42.27
2023-05-23T11:52:51.943Z,41.34
2023-05-23T11:55:23.378Z,40.94
2023-05-23T11:57:52.089Z,41.61
2023-05-23T12:00:20.461Z,42.04
2023-05-23T12:02:49.165Z,41.22
2023-05-23T12:05:16.990Z,40.82
2023-05-23T12:07:48.560Z,41.62
2023-05-23T12:10:17.030Z,41.63
2023-05-23T12:12:48.954Z,41.56
2023-05-23T12:15:17.117Z,41.53
2023-05-23T12:17:46.454Z,41.39
2023-05-23T12:20:14.388Z,41.90
2023-05-23T12:22:42.431Z,41.69
2023-05-23T12:25:13.033Z,42.30
2023-05-23T12:27:42.045Z,42.22
2023-05-23T12:30:11.451Z,42.32
2023-05-23T12:32:42.858Z,42.79
2023-05-23T12:35:13.307Z,42.99
2023-05-23T12:37:41.544Z,42.95
2023-05-23T12:40:16.172Z,42.64
2023-05-23T12:42:51.761Z,42.80
2023-05-23T12:45:21.051Z,43.15
2023-05-23T12:47:50.252Z,42.67
2023-05-23T12:50:19.000Z,42.60
2023-05-23T12:52:46.491Z,42.49
2023-05-23T12:55:14.391Z,42.07
2023-05-23T12:57:42.437Z,41.23
2023-05-23T13:00:10.891Z,41.03
2023-05-23T13:02:40.851Z,39.67
2023-05-23T13:05:09.519Z,39.03
2023-05-23T13:07:37.988Z,38.16
2023-05-23T13:10:06.194Z,37.70
2023-05-23T13:12:34.661Z,37.48
2023-05-23T13:15:02.293Z,37.76
2023-05-23T13:17:30.521Z,37.74
2023-05-23T13:19:58.599Z,38.03
2023-05-23T13:22:26.325Z,38.02
2023-05-23T13:24:53.847Z,38.33
2023-05-23T13:27:21.738Z,38.48
2023-05-23T13:29:49.310Z,39.23
2023-05-23T13:32:16.866Z,38.77
2023-05-23T13:34:44.475Z,39.11
2023-05-23T13:37:11.980Z,39.54
2023-05-23T13:39:39.442Z,39.24
2023-05-23T13:42:08.089Z,39.13
2023-05-23T13:44:36.189Z,39.22
2023-05-23T13:47:12.949Z,38.98
2023-05-23T13:49:42.041Z,37.94
2023-05-23T13:52:09.730Z,38.58
2023-05-23T13:54:37.481Z,38.79
2023-05-23T13:57:05.848Z,39.44
2023-05-23T13:59:33.460Z,39.82
2023-05-23T14:02:01.117Z,40.01
2023-05-23T14:04:28.809Z,39.39
2023-05-23T14:06:56.343Z,38.19
2023-05-23T14:09:23.809Z,38.09
2023-05-23T14:11:54.125Z,38.66
2023-05-23T14:14:22.218Z,37.76
2023-05-23T14:16:51.250Z,36.68
2023-05-23T14:19:19.532Z,36.62
2023-05-23T14:25:11.281Z,36.54
2023-05-23T14:27:40.251Z,36.40
2023-05-23T14:30:08.505Z,36.64
2023-05-23T14:32:39.344Z,36.40
2023-05-23T14:35:07.980Z,36.38
2023-05-23T14:37:35.704Z,36.31
2023-05-23T14:40:05.252Z,36.71
2023-05-23T14:42:33.196Z,37.73
2023-05-23T14:45:00.907Z,38.27
2023-05-23T14:47:28.581Z,38.42
2023-05-23T14:49:56.286Z,38.38
2023-05-23T14:52:24.372Z,38.80
2023-05-23T14:54:52.136Z,39.02
2023-05-23T14:57:19.807Z,39.10
2023-05-23T14:59:47.653Z,38.55
2023-05-23T15:02:15.537Z,37.36
2023-05-23T15:04:43.588Z,37.11
2023-05-23T15:07:11.260Z,36.73
2023-05-23T15:09:38.873Z,36.06
2023-05-23T15:12:09.753Z,36.27
2023-05-23T15:14:37.428Z,36.72
2023-05-23T15:17:08.300Z,35.74
2023-05-23T15:19:36.747Z,35.31
2023-05-23T15:22:06.034Z,35.00
2023-05-23T15:24:35.067Z,34.56
2023-05-23T15:27:15.691Z,34.24
2023-05-23T15:29:47.008Z,34.96
2023-05-23T15:32:14.749Z,35.54
2023-05-23T15:34:42.800Z,36.06
2023-05-23T15:37:11.092Z,35.35
2023-05-23T15:39:38.567Z,35.01
2023-05-23T15:42:06.204Z,35.09
2023-05-23T15:44:33.963Z,35.40
2023-05-23T15:47:10.436Z,35.65
2023-05-23T15:49:38.539Z,35.16
2023-05-23T15:52:06.300Z,34.40
2023-05-23T15:54:34.005Z,34.48
2023-05-23T15:57:01.497Z,34.79
2023-05-23T15:59:29.159Z,34.85
2023-05-23T16:01:57.449Z,35.51
2023-05-23T16:04:25.261Z,35.23
2023-05-23T16:06:52.698Z,35.32
2023-05-23T16:09:20.254Z,35.39
2023-05-23T16:11:47.840Z,35.54
2023-05-23T16:14:16.319Z,35.76
2023-05-23T16:16:44.224Z,35.62
2023-05-23T16:19:11.907Z,35.75
2023-05-23T16:21:39.535Z,36.16
2023-05-23T16:24:07.421Z,35.94
2023-05-23T16:26:35.067Z,36.05
2023-05-23T16:29:03.137Z,36.39
2023-05-23T16:31:30.833Z,37.04
2023-05-23T16:33:59.595Z,37.52
2023-05-23T16:36:27.890Z,37.00
2023-05-23T16:38:57.130Z,37.19
2023-05-23T16:41:24.712Z,37.79
2023-05-23T16:43:52.369Z,38.24
2023-05-23T16:46:22.261Z,37.64
2023-05-23T16:48:50.151Z,37.56
2023-05-23T16:51:19.160Z,38.24
2023-05-23T16:53:46.798Z,38.45
2023-05-23T16:56:14.757Z,38.53
2023-05-23T16:58:42.308Z,38.31
2023-05-23T17:01:09.941Z,38.60
2023-05-23T17:03:37.622Z,39.27
2023-05-23T17:06:05.749Z,39.73
2023-05-23T17:08:33.249Z,39.92
2023-05-23T17:11:00.814Z,40.39
2023-05-23T17:13:28.616Z,40.82
2023-05-23T17:15:57.163Z,41.10
2023-05-23T17:18:24.707Z,41.07
2023-05-23T17:20:52.225Z,41.56
2023-05-23T17:23:19.861Z,42.20
2023-05-23T17:25:47.514Z,42.54
2023-05-23T17:28:15.075Z,42.67
2023-05-23T17:30:42.873Z,42.69
2023-05-23T17:33:13.392Z,42.87
2023-05-23T17:35:41.183Z,42.74
2023-05-23T17:38:08.874Z,42.84
2023-05-23T17:40:36.445Z,43.54
2023-05-23T17:43:04.066Z,44.45
2023-05-23T17:45:31.709Z,44.91
2023-05-23T17:48:03.832Z,46.07
2023-05-23T17:50:32.379Z,47.47
2023-05-23T17:53:02.762Z,48.49
2023-05-23T17:55:31.851Z,49.40
2023-05-23T17:57:59.427Z,49.46
2023-05-23T18:00:27.293Z,49.60
2023-05-23T18:02:54.887Z,49.71
2023-05-23T18:05:23.762Z,49.73
2023-05-23T18:07:51.323Z,50.66
2023-05-23T18:10:18.973Z,51.85
2023-05-23T18:12:46.586Z,54.25
2023-05-23T18:15:14.162Z,55.48
2023-05-23T18:17:41.976Z,56.60
2023-05-23T18:20:10.517Z,57.47
2023-05-23T18:22:38.167Z,58.56
2023-05-23T18:25:06.888Z,61.53
2023-05-23T18:27:34.404Z,63.94
2023-05-23T18:30:02.016Z,66.10
2023-05-23T18:32:30.323Z,68.37
2023-05-23T18:34:58.016Z,70.05
2023-05-23T18:37:25.488Z,71.39
2023-05-23T18:39:58.033Z,72.53
2023-05-23T18:42:25.675Z,73.49
2023-05-23T18:44:53.194Z,74.66
2023-05-23T18:47:22.743Z,76.00
2023-05-23T18:49:51.784Z,76.78
2023-05-23T18:52:20.511Z,77.29
2023-05-23T18:54:50.577Z,77.49
2023-05-23T18:57:20.593Z,78.12
2023-05-23T18:59:48.856Z,79.09
2023-05-23T19:02:16.452Z,80.08
2023-05-23T19:04:44.008Z,80.84
2023-05-23T19:07:11.771Z,82.04
2023-05-23T19:09:39.282Z,83.30
2023-05-23T19:12:07.307Z,85.88
2023-05-23T19:14:35.037Z,89.07
2023-05-23T19:17:05.992Z,94.09
2023-05-23T19:19:35.019Z,97.66
2023-05-23T19:22:02.608Z,99.91
2023-05-23T19:24:30.312Z,100.00
2023-05-23T19:26:57.960Z,100.00
2023-05-23T19:29:26.048Z,100.00
2023-05-23T19:31:55.001Z,100.00
2023-05-23T19:34:22.683Z,100.00
2023-05-23T19:36:50.255Z,100.00
2023-05-23T19:39:17.889Z,100.00
2023-05-23T19:41:45.460Z,100.00
2023-05-23T19:44:13.454Z,100.00
2023-05-23T19:46:41.076Z,100.00
2023-05-23T19:49:09.148Z,100.00
2023-05-23T19:51:46.844Z,100.00
2023-05-23T19:54:16.846Z,100.00
2023-05-23T19:56:45.965Z,100.00
2023-05-23T19:59:14.220Z,100.00
2023-05-23T20:01:41.943Z,100.00
2023-05-23T20:04:13.000Z,100.00
2023-05-23T20:06:40.796Z,100.00
2023-05-23T20:09:08.664Z,100.00
2023-05-23T20:11:36.148Z,100.00
2023-05-23T20:14:03.675Z,100.00
2023-05-23T20:16:31.254Z,100.00
2023-05-23T20:18:58.929Z,100.00
2023-05-23T20:21:26.366Z,100.00
2023-05-23T20:23:54.922Z,100.00
2023-05-23T20:26:22.908Z,100.00
2023-05-23T20:28:50.676Z,100.00
2023-05-23T20:31:19.224Z,100.00
2023-05-23T20:33:46.834Z,100.00
2023-05-23T20:36:14.393Z,100.00
2023-05-23T20:38:42.033Z,100.00
2023-05-23T20:41:09.707Z,100.00
2023-05-23T20:43:40.128Z,100.00
2023-05-23T20:46:09.358Z,100.00
2023-05-23T20:48:37.002Z,100.00
2023-05-23T20:51:06.106Z,100.00
2023-05-23T20:53:34.344Z,100.00
2023-05-23T20:56:02.723Z,100.00
2023-05-23T20:58:30.163Z,100.00
2023-05-23T21:00:58.980Z,100.00
2023-05-23T21:03:26.911Z,100.00
2023-05-23T21:05:55.403Z,100.00
2023-05-23T21:08:23.056Z,100.00
2023-05-23T21:10:53.220Z,100.00
2023-05-23T21:13:21.985Z,100.00
2023-05-23T21:15:49.949Z,100.00
2023-05-23T21:18:17.365Z,100.00
2023-05-23T21:20:45.150Z,100.00
2023-05-23T21:23:12.757Z,100.00
2023-05-23T21:25:40.185Z,100.00
2023-05-23T21:28:07.844Z,100.00
2023-05-23T21:30:35.554Z,100.00
2023-05-23T21:33:03.425Z,100.00
2023-05-23T21:35:31.099Z,100.00
2023-05-23T21:37:58.653Z,100.00
2023-05-23T21:40:27.150Z,100.00
2023-05-23T21:42:54.732Z,100.00
2023-05-23T21:45:22.491Z,100.00
2023-05-23T21:47:50.141Z,100.00
2023-05-23T21:50:18.019Z,100.00
2023-05-23T21:52:45.677Z,100.00
2023-05-23T21:55:13.380Z,100.00
2023-05-23T21:57:41.106Z,100.00
2023-05-23T22:00:12.850Z,100.00
2023-05-23T22:02:40.852Z,100.00
2023-05-23T22:05:09.114Z,100.00
2023-05-23T22:07:36.983Z,100.00
2023-05-23T22:10:05.041Z,100.00
2023-05-23T22:12:32.603Z,100.00
2023-05-23T22:15:00.192Z,100.00
2023-05-23T22:17:27.770Z,100.00
2023-05-23T22:19:58.348Z,100.00
2023-05-23T22:22:26.114Z,100.00
2023-05-23T22:24:53.878Z,100.00
2023-05-23T22:27:21.467Z,100.00
2023-05-23T22:29:48.928Z,100.00
2023-05-23T22:32:16.550Z,100.00
2023-05-23T22:34:45.521Z,100.00
2023-05-23T22:37:13.105Z,100.00
2023-05-23T22:39:40.665Z,100.00
2023-05-23T22:42:08.354Z,100.00
2023-05-23T22:44:36.594Z,100.00
2023-05-23T22:47:04.606Z,100.00
2023-05-23T22:49:32.328Z,100.00
2023-05-23T22:51:59.891Z,100.00
2023-05-23T22:54:27.444Z,100.00
2023-05-23T22:56:55.892Z,100.00
2023-05-23T22:59:23.348Z,100.00
2023-05-23T23:01:51.308Z,100.00
2023-05-23T23:04:23.810Z,100.00
2023-05-23T23:06:53.889Z,100.00
2023-05-23T23:09:21.625Z,100.00
2023-05-23T23:11:49.093Z,100.00
2023-05-23T23:14:16.618Z,100.00
2023-05-23T23:16:46.498Z,100.00
2023-05-23T23:19:14.092Z,100.00
2023-05-23T23:21:41.535Z,100.00
2023-05-23T23:24:09.028Z,100.00
2023-05-23T23:26:36.784Z,100.00
2023-05-23T23:29:04.431Z,100.00
2023-05-23T23:31:31.929Z,100.00
2023-05-23T23:33:59.641Z,100.00
2023-05-23T23:36:27.244Z,100.00
2023-05-23T23:38:54.671Z,100.00
2023-05-23T23:41:22.998Z,100.00
2023-05-23T23:43:50.420Z,100.00
2023-05-23T23:46:19.053Z,100.00
2023-05-23T23:48:46.831Z,100.00
2023-05-23T23:51:14.486Z,100.00
2023-05-23T23:53:42.078Z,100.00
2023-05-23T23:56:09.578Z,100.00
2023-05-23T23:58:37.371Z,100.00
